Time;durP1;ratioP1;P1;durP2;ratioP2;P2;SDS_P1;SDS_P2;PMS_P1;PMS_P2;Temp;Humidity;BMP_temperature;BMP_pressure;BME280_temperature;BME280_humidity;BME280_pressure;Samples;Min_cycle;Max_cycle;Signal;HPM_P1;HPM_P2
2021/06/21 00:01:15;;;;;;;2.83;0.75;;;;;;;14.56;78.08;100595.16;4792901;29;20035;-79
2021/06/21 00:03:40;;;;;;;6.40;1.02;;;;;;;14.77;78.14;100623.63;4806526;29;20102;-80
2021/06/21 00:06:06;;;;;;;5.43;1.10;;;;;;;14.74;77.73;100618.66;4803610;29;20095;-80
2021/06/21 00:08:31;;;;;;;2.53;0.80;;;;;;;14.65;77.42;100602.97;4807258;29;20075;-79
2021/06/21 00:10:58;;;;;;;5.28;0.80;;;;;;;14.68;77.47;100607.94;4806178;29;20046;-80
2021/06/21 00:13:23;;;;;;;3.47;0.70;;;;;;;14.59;77.04;100610.13;4806828;29;20035;-79
2021/06/21 00:15:51;;;;;;;5.50;1.05;;;;;;;14.52;76.78;100612.09;4791419;29;20031;-79
2021/06/21 00:18:17;;;;;;;7.45;1.10;;;;;;;14.49;76.96;100617.94;4804262;29;20051;-80
2021/06/21 00:20:42;;;;;;;4.63;0.93;;;;;;;14.49;76.78;100618.75;4806657;29;20034;-79
2021/06/21 00:23:08;;;;;;;3.92;0.90;;;;;;;14.43;76.89;100619.69;4805897;29;20035;-79
2021/06/21 00:25:33;;;;;;;4.20;0.90;;;;;;;14.42;76.75;100618.03;4806276;29;20043;-79
2021/06/21 00:27:59;;;;;;;3.15;0.65;;;;;;;14.27;76.66;100602.22;4807142;29;20049;-80
2021/06/21 00:30:24;;;;;;;3.72;0.90;;;;;;;14.36;76.73;100627.06;4809160;29;20437;-80
2021/06/21 00:32:50;;;;;;;4.20;0.88;;;;;;;14.26;77.09;100616.78;4807508;29;20113;-80
2021/06/21 00:35:17;;;;;;;4.25;0.90;;;;;;;14.25;77.17;100615.13;4808930;29;20361;-80
2021/06/21 00:37:43;;;;;;;5.68;1.00;;;;;;;14.15;77.68;100593.19;4808043;29;20027;-80
2021/06/21 00:40:11;;;;;;;7.45;0.95;;;;;;;14.18;77.86;100589.22;4808581;29;20034;-80
2021/06/21 00:42:39;;;;;;;3.00;0.77;;;;;;;14.04;78.17;100566.94;4808078;29;20115;-80
2021/06/21 00:45:05;;;;;;;10.20;1.40;;;;;;;14.07;78.43;100578.13;4808143;29;20370;-80
2021/06/21 00:47:31;;;;;;;6.72;1.30;;;;;;;14.00;78.17;100574.66;4807174;29;20062;-80
2021/06/21 00:49:56;;;;;;;5.85;1.20;;;;;;;13.94;78.32;100591.81;4807104;29;20066;-80
2021/06/21 00:52:22;;;;;;;4.18;1.15;;;;;;;13.91;78.26;100586.84;4805719;29;20094;-80
2021/06/21 00:54:59;;;;;;;4.55;1.10;;;;;;;13.84;78.44;100578.81;4806469;29;20094;-80
2021/06/21 00:57:25;;;;;;;3.60;1.13;;;;;;;13.82;78.40;100589.03;4808007;29;20454;-80
2021/06/21 00:59:50;;;;;;;3.72;1.27;;;;;;;13.80;78.46;100585.69;4808645;29;20034;-80
2021/06/21 01:02:17;;;;;;;5.30;1.25;;;;;;;13.78;78.45;100589.72;4774725;29;20374;-80
2021/06/21 01:04:43;;;;;;;7.28;1.10;;;;;;;13.78;78.76;100587.00;4807926;29;20046;-80
2021/06/21 01:07:08;;;;;;;5.35;1.15;;;;;;;13.76;78.47;100589.09;4790361;29;20422;-80
2021/06/21 01:09:34;;;;;;;3.85;1.13;;;;;;;13.52;78.69;100567.31;4793739;29;20055;-80
2021/06/21 01:12:13;;;;;;;4.13;1.02;;;;;;;13.62;78.75;100589.25;4802909;29;20048;-80
2021/06/21 01:14:56;;;;;;;6.30;1.80;;;;;;;13.58;78.72;100587.22;4805918;29;20034;-80
2021/06/21 01:17:34;;;;;;;6.22;1.38;;;;;;;13.63;78.99;100579.25;4811689;29;20489;-80
2021/06/21 01:20:27;;;;;;;4.78;1.10;;;;;;;13.65;79.08;100595.25;4806297;29;20023;-80
2021/06/21 01:23:43;;;;;;;7.18;1.35;;;;;;;13.62;79.27;100610.88;4814188;29;20049;-80
2021/06/21 01:26:16;;;;;;;5.35;1.27;;;;;;;13.61;79.12;100611.94;4810324;29;20370;-80
2021/06/21 01:29:19;;;;;;;3.83;1.25;;;;;;;13.71;79.21;100618.69;4811958;29;20092;-80
2021/06/21 01:31:59;;;;;;;7.10;1.48;;;;;;;13.72;79.23;100625.75;4811529;29;20117;-80
2021/06/21 01:34:27;;;;;;;5.60;1.10;;;;;;;13.75;79.02;100619.91;4810977;29;20069;-80
2021/06/21 01:36:56;;;;;;;6.22;1.30;;;;;;;13.80;79.04;100628.16;4812857;29;20053;-80
2021/06/21 01:39:22;;;;;;;4.85;1.20;;;;;;;13.70;79.00;100615.16;4809886;29;20058;-80
2021/06/21 01:41:51;;;;;;;5.03;1.30;;;;;;;13.73;78.77;100608.47;4811984;29;20172;-80
2021/06/21 01:44:18;;;;;;;6.15;1.42;;;;;;;13.87;78.91;100634.31;4812252;29;20034;-80
2021/06/21 01:46:47;;;;;;;4.93;1.33;;;;;;;13.69;78.74;100605.41;4811555;29;20423;-80
2021/06/21 01:49:19;;;;;;;6.82;1.60;;;;;;;13.85;79.16;100626.44;4827775;29;20031;-80
2021/06/21 01:51:45;;;;;;;10.10;1.50;;;;;;;13.87;79.14;100628.91;4812012;29;20046;-80
2021/06/21 01:54:12;;;;;;;7.03;1.80;;;;;;;13.93;78.47;100625.31;4814328;29;20115;-81
2021/06/21 01:56:42;;;;;;;7.57;1.50;;;;;;;13.85;78.43;100620.19;4819634;29;20039;-80
2021/06/21 01:59:09;;;;;;;3.63;1.20;;;;;;;13.93;78.17;100616.38;4816225;29;20535;-80
2021/06/21 02:01:36;;;;;;;6.38;1.40;;;;;;;13.90;78.20;100625.75;4811675;29;20073;-80
2021/06/21 02:04:06;;;;;;;5.32;1.40;;;;;;;13.68;78.18;100605.63;4810962;29;20038;-80
2021/06/21 02:06:32;;;;;;;6.60;1.65;;;;;;;13.76;78.13;100621.53;4810085;29;20031;-80
2021/06/21 02:09:01;;;;;;;8.27;1.92;;;;;;;13.68;78.63;100616.44;4815090;29;20039;-80
2021/06/21 02:11:27;;;;;;;5.18;1.75;;;;;;;13.65;78.55;100630.41;4811738;29;20023;-80
2021/06/21 02:13:54;;;;;;;6.10;1.70;;;;;;;13.50;78.63;100619.94;4811174;29;20023;-80
2021/06/21 02:16:21;;;;;;;7.60;1.83;;;;;;;13.44;78.55;100612.72;4811330;29;20476;-80
2021/06/21 02:18:49;;;;;;;7.25;1.90;;;;;;;13.52;79.12;100637.59;4808741;29;20093;-80
2021/06/21 02:21:17;;;;;;;7.93;2.13;;;;;;;13.50;79.18;100642.38;4809561;29;20038;-80
2021/06/21 02:23:44;;;;;;;6.15;2.10;;;;;;;13.38;79.40;100636.06;4811829;29;20033;-80
2021/06/21 02:26:11;;;;;;;6.65;2.00;;;;;;;13.45;79.48;100641.41;4809779;29;20039;-80
2021/06/21 02:28:37;;;;;;;6.72;2.20;;;;;;;13.42;79.74;100650.78;4793896;29;20038;-80
2021/06/21 02:31:07;;;;;;;6.43;1.92;;;;;;;13.47;79.66;100644.72;4825473;29;20022;-80
2021/06/21 02:33:33;;;;;;;8.40;1.98;;;;;;;13.45;79.48;100633.31;4811006;29;20065;-79
2021/06/21 02:35:58;;;;;;;11.40;2.65;;;;;;;13.52;79.60;100643.00;4809062;29;20033;-80
2021/06/21 02:38:24;;;;;;;6.22;2.08;;;;;;;13.56;79.53;100638.78;4811199;29;20042;-79
2021/06/21 02:40:50;;;;;;;10.55;2.40;;;;;;;13.59;79.29;100642.94;4810566;29;20058;-80
2021/06/21 02:43:17;;;;;;;4.95;1.77;;;;;;;13.66;78.74;100653.69;4810460;29;20118;-80
2021/06/21 02:45:43;;;;;;;10.65;2.30;;;;;;;13.71;78.48;100656.53;4811090;29;20023;-80
2021/06/21 02:48:10;;;;;;;9.77;2.10;;;;;;;13.73;78.56;100663.38;4794908;29;20046;-80
2021/06/21 02:50:41;;;;;;;12.90;2.33;;;;;;;13.78;78.55;100673.53;4812034;29;20105;-80
2021/06/21 02:53:27;;;;;;;6.63;1.83;;;;;;;13.76;78.18;100659.41;4823984;29;20026;-80
2021/06/21 02:56:07;;;;;;;5.20;1.73;;;;;;;13.82;78.21;100672.03;4811306;29;20035;-80
2021/06/21 02:58:39;;;;;;;8.95;2.45;;;;;;;13.74;78.44;100666.91;4810543;29;20133;-80
2021/06/21 03:01:06;;;;;;;7.65;2.22;;;;;;;13.79;78.71;100659.78;4809644;29;20030;-80
2021/06/21 03:03:37;;;;;;;7.20;1.90;;;;;;;13.76;78.69;100659.41;4810604;29;20026;-80
2021/06/21 03:06:04;;;;;;;7.28;1.90;;;;;;;13.82;78.55;100674.75;4807428;29;20098;-80
2021/06/21 03:08:30;;;;;;;12.32;2.25;;;;;;;13.85;78.32;100668.88;4810820;29;20486;-80
2021/06/21 03:10:57;;;;;;;9.20;2.15;;;;;;;13.99;78.26;100674.97;4809552;29;20049;-80
2021/06/21 03:13:24;;;;;;;10.80;2.90;;;;;;;15.16;74.53;100693.69;4794183;29;20143;-80
2021/06/21 03:15:51;;;;;;;7.93;1.90;;;;;;;15.64;72.49;100681.84;4811481;29;20026;-80
2021/06/21 03:18:21;;;;;;;6.15;1.75;;;;;;;15.61;72.41;100657.91;4808214;29;20086;-80
2021/06/21 03:20:59;;;;;;;5.20;1.63;;;;;;;15.16;73.33;100680.94;4812138;29;20110;-80
2021/06/21 03:23:27;;;;;;;6.45;1.70;;;;;;;14.80;74.36;100676.47;4816253;29;20094;-80
2021/06/21 03:25:54;;;;;;;4.78;1.50;;;;;;;15.01;74.15;100669.72;4827118;29;20090;-80
2021/06/21 03:28:20;;;;;;;4.78;1.58;;;;;;;16.11;70.44;100649.25;4793559;29;20095;-80
2021/06/21 03:30:52;;;;;;;11.93;1.85;;;;;;;15.83;70.91;100667.13;4809553;29;20031;-79
2021/06/21 03:33:18;;;;;;;6.95;1.83;;;;;;;15.37;72.78;100676.06;4808802;29;20039;-80
2021/06/21 03:35:43;;;;;;;5.45;1.60;;;;;;;15.16;73.72;100693.69;4810032;29;20084;-80
2021/06/21 03:38:19;;;;;;;7.30;2.10;;;;;;;14.84;74.52;100683.13;4808469;29;20453;-80
2021/06/21 03:40:45;;;;;;;6.25;1.50;;;;;;;14.60;75.03;100681.34;4808093;29;20031;-80
2021/06/21 03:43:13;;;;;;;7.38;1.88;;;;;;;14.48;75.16;100684.81;4810016;29;20034;-80
2021/06/21 03:45:40;;;;;;;5.55;1.50;;;;;;;14.44;75.52;100688.22;4808828;29;20035;-80
2021/06/21 03:48:06;;;;;;;3.92;1.40;;;;;;;14.34;74.76;100683.31;4808349;29;20477;-80
2021/06/21 03:50:31;;;;;;;7.65;1.45;;;;;;;14.28;75.09;100673.41;4808586;29;20039;-80
2021/06/21 03:52:56;;;;;;;4.97;1.42;;;;;;;14.21;74.84;100675.38;4801832;29;20446;-80
2021/06/21 03:55:22;;;;;;;5.70;1.25;;;;;;;14.16;75.29;100662.50;4810098;29;20034;-79
2021/06/21 03:57:49;;;;;;;4.88;1.63;;;;;;;14.12;75.21;100677.53;4807314;29;20038;-80
2021/06/21 04:00:18;;;;;;;5.45;1.65;;;;;;;14.10;75.34;100685.91;4809597;29;20041;-80
2021/06/21 04:02:44;;;;;;;7.13;1.58;;;;;;;14.06;75.55;100663.03;4808669;29;20034;-80
2021/06/21 04:05:10;;;;;;;5.28;1.30;;;;;;;14.01;75.35;100667.47;4805017;29;20038;-79
2021/06/21 04:07:36;;;;;;;5.97;1.35;;;;;;;14.09;75.00;100659.88;4807622;29;20029;-80
2021/06/21 04:10:07;;;;;;;5.20;1.52;;;;;;;14.10;75.11;100666.09;4808399;29;20030;-80
2021/06/21 04:12:34;;;;;;;6.35;1.33;;;;;;;13.97;75.05;100650.03;4803454;29;20038;-79
2021/06/21 04:14:59;;;;;;;8.18;1.88;;;;;;;14.01;75.42;100643.94;4805934;29;20091;-80
2021/06/21 04:17:24;;;;;;;5.53;1.40;;;;;;;14.09;75.46;100661.75;4783240;29;20047;-80
2021/06/21 04:19:50;;;;;;;7.00;2.13;;;;;;;14.01;75.91;100660.19;4814277;29;20030;-80
2021/06/21 04:22:16;;;;;;;5.93;1.80;;;;;;;14.09;76.10;100670.69;4808571;29;20035;-80
2021/06/21 04:24:42;;;;;;;9.45;1.80;;;;;;;14.06;76.32;100671.13;4809982;29;20114;-80
2021/06/21 04:27:07;;;;;;;8.30;1.73;;;;;;;14.06;76.46;100668.44;4804950;29;20117;-80
2021/06/21 04:29:33;;;;;;;5.13;1.63;;;;;;;14.03;76.27;100666.19;4794940;29;20110;-80
2021/06/21 04:31:58;;;;;;;13.07;2.20;;;;;;;14.08;76.10;100673.63;4829915;29;20030;-81
2021/06/21 04:34:23;;;;;;;8.30;1.65;;;;;;;13.93;76.42;100652.34;4783286;29;20468;-80
2021/06/21 04:36:49;;;;;;;4.70;1.70;;;;;;;14.07;76.07;100672.81;4780626;29;20551;-79
2021/06/21 04:39:14;;;;;;;5.30;1.60;;;;;;;14.07;75.98;100678.22;4805403;29;20042;-79
2021/06/21 04:41:40;;;;;;;7.40;2.25;;;;;;;14.10;75.87;100682.34;4800897;29;20035;-79
2021/06/21 04:44:05;;;;;;;9.20;2.05;;;;;;;14.08;76.31;100677.16;4799605;29;20125;-79
2021/06/21 04:46:33;;;;;;;6.28;1.50;;;;;;;14.05;75.92;100668.69;4801861;29;20123;-80
2021/06/21 04:48:59;;;;;;;6.85;1.70;;;;;;;14.16;75.82;100677.91;4800130;29;20033;-78
2021/06/21 04:51:27;;;;;;;10.68;2.25;;;;;;;14.16;75.36;100675.22;4797695;29;20035;-79
2021/06/21 04:53:53;;;;;;;9.25;1.63;;;;;;;14.24;75.31;100685.75;4798538;29;20195;-79
2021/06/21 04:56:18;;;;;;;8.93;1.55;;;;;;;14.26;74.85;100691.75;4800535;29;20114;-80
2021/06/21 04:58:44;;;;;;;6.82;1.38;;;;;;;14.29;74.66;100685.88;4787399;29;20455;-79
2021/06/21 05:01:09;;;;;;;7.15;2.42;;;;;;;14.45;74.31;100695.25;4803075;29;20023;-80
2021/06/21 05:03:37;;;;;;;10.95;2.00;;;;;;;14.71;73.72;100691.44;4813540;29;20168;-81
2021/06/21 05:06:04;;;;;;;7.80;1.77;;;;;;;14.69;73.58;100682.69;4818338;29;20019;-81
2021/06/21 05:08:30;;;;;;;8.50;1.83;;;;;;;14.62;72.83;100666.53;4913025;24;20729;-80
2021/06/21 05:10:55;;;;;;;8.50;2.08;;;;;;;14.52;72.73;100615.63;4823544;29;20043;-82
2021/06/21 05:13:21;;;;;;;9.50;1.67;;;;;;;14.21;72.55;100554.41;4868268;24;20070;-83
2021/06/21 05:15:47;;;;;;;6.88;1.85;;;;;;;14.52;72.60;100604.81;4828009;29;20047;-82
2021/06/21 05:18:13;;;;;;;6.80;1.90;;;;;;;14.12;72.84;100549.53;4828510;29;20011;-84
2021/06/21 05:23:14;;;;;;;7.53;1.70;;;;;;;15.24;72.65;100707.72;5859812;24;20028;-78
2021/06/21 05:25:39;;;;;;;7.25;1.40;;;;;;;14.89;72.11;100644.47;4819258;29;20047;-80
2021/06/21 05:28:05;;;;;;;6.60;1.92;;;;;;;14.52;72.19;100577.72;5335668;24;20132;-82
2021/06/21 05:30:31;;;;;;;9.52;1.95;;;;;;;14.57;71.92;100579.75;4804756;29;20087;-82
2021/06/21 05:32:57;;;;;;;7.53;1.60;;;;;;;14.44;72.53;100575.31;4807666;29;20046;-81
2021/06/21 05:35:23;;;;;;;8.13;2.20;;;;;;;14.42;72.13;100571.19;4807433;29;20044;-82
2021/06/21 05:37:49;;;;;;;9.10;1.80;;;;;;;14.57;72.25;100580.59;4806360;29;20050;-82
2021/06/21 05:42:50;;;;;;;8.38;2.00;;;;;;;15.21;71.72;100634.19;5534289;24;20051;-81
2021/06/21 05:45:17;;;;;;;5.93;1.70;;;;;;;15.73;71.16;100722.00;4823917;29;20076;-82
2021/06/21 05:47:44;;;;;;;8.38;2.10;;;;;;;14.85;70.74;100578.28;4828030;29;20069;-82
2021/06/21 05:50:11;;;;;;;7.47;1.73;;;;;;;15.52;69.70;100646.56;4823036;29;20050;-81
2021/06/21 05:52:36;;;;;;;7.72;1.60;;;;;;;15.47;70.26;100632.91;4822087;29;20027;-81
2021/06/21 05:55:02;;;;;;;6.30;1.70;;;;;;;15.30;69.89;100570.44;4823487;29;20358;-81
2021/06/21 05:57:29;;;;;;;8.98;1.77;;;;;;;15.25;69.31;100529.66;4826597;29;20023;-80
2021/06/21 05:59:55;;;;;;;12.48;2.22;;;;;;;15.39;69.42;100582.56;4818740;29;20037;-81
2021/06/21 06:02:21;;;;;;;9.60;2.22;;;;;;;15.36;69.10;100574.91;4816859;29;20039;-81
2021/06/21 06:04:47;;;;;;;5.38;1.50;;;;;;;15.59;68.27;100570.53;4832583;29;20095;-80
2021/06/21 06:07:13;;;;;;;8.23;1.73;;;;;;;15.59;67.87;100540.69;4820873;29;20057;-81
2021/06/21 06:09:39;;;;;;;7.10;1.70;;;;;;;16.83;67.14;100716.75;4817292;29;20033;-80
2021/06/21 06:12:05;;;;;;;8.48;1.75;;;;;;;17.22;66.24;100712.31;4822591;29;20050;-81
2021/06/21 06:14:32;;;;;;;8.10;1.73;;;;;;;17.14;65.05;100642.81;4828060;29;20015;-82
2021/06/21 06:16:58;;;;;;;7.90;2.00;;;;;;;17.38;64.21;100653.53;4824372;29;20031;-81
2021/06/21 06:19:24;;;;;;;9.70;2.22;;;;;;;17.30;63.38;100581.34;4826070;29;20021;-82
2021/06/21 06:21:50;;;;;;;6.95;2.25;;;;;;;17.54;62.66;100572.97;4827187;29;20054;-81
2021/06/21 06:24:16;;;;;;;9.02;2.00;;;;;;;17.20;62.19;100542.31;4822519;29;20014;-81
2021/06/21 06:26:43;;;;;;;9.13;1.80;;;;;;;17.94;62.11;100653.56;4826994;29;20030;-82
2021/06/21 06:29:14;;;;;;;6.28;1.92;;;;;;;17.38;62.04;100537.41;4822290;29;20019;-83
2021/06/21 06:31:46;;;;;;;6.35;1.77;;;;;;;17.98;61.01;100608.41;4826079;29;20035;-80
2021/06/21 06:34:12;;;;;;;5.75;2.00;;;;;;;17.47;60.96;100556.84;4818178;29;20104;-81
2021/06/21 06:36:38;;;;;;;4.45;1.50;;;;;;;18.02;61.12;100642.25;4804356;29;20042;-80
2021/06/21 06:39:05;;;;;;;11.95;2.22;;;;;;;17.76;60.99;100611.97;4823995;29;20031;-80
2021/06/21 06:41:30;;;;;;;9.02;2.13;;;;;;;18.42;61.37;100731.00;4824093;29;20046;-80
2021/06/21 06:43:56;;;;;;;6.45;1.58;;;;;;;18.35;60.82;100717.56;4819286;29;20047;-80
2021/06/21 06:46:21;;;;;;;4.75;1.80;;;;;;;18.70;60.13;100736.25;4812406;29;20040;-80
2021/06/21 06:48:47;;;;;;;7.10;2.10;;;;;;;18.89;60.02;100728.59;4815678;29;20046;-79
2021/06/21 06:51:12;;;;;;;9.02;2.33;;;;;;;18.75;60.26;100725.44;4815052;29;20035;-80
2021/06/21 06:53:41;;;;;;;7.15;2.00;;;;;;;18.57;59.37;100766.59;4815685;29;20062;-80
2021/06/21 06:58:51;;;;;;;9.88;2.40;;;;;;;18.05;60.29;100729.69;4808994;29;20049;-79
2021/06/21 07:01:16;;;;;;;9.80;2.20;;;;;;;17.81;61.13;100750.84;4812853;29;20450;-80
2021/06/21 07:03:41;;;;;;;8.45;2.42;;;;;;;17.38;62.08;100722.38;4816751;29;20045;-80
2021/06/21 07:06:07;;;;;;;9.40;2.67;;;;;;;17.36;62.60;100759.84;4813337;29;20112;-80
2021/06/21 07:08:33;;;;;;;9.70;3.05;;;;;;;17.35;62.80;100754.66;4812478;29;20054;-79
2021/06/21 07:10:59;;;;;;;9.98;2.90;;;;;;;17.29;62.81;100734.72;4810532;29;20062;-79
2021/06/21 07:13:25;;;;;;;5.75;2.17;;;;;;;17.25;63.25;100749.03;4812019;29;20510;-80
2021/06/21 07:15:51;;;;;;;11.80;2.78;;;;;;;17.31;63.51;100759.75;4811940;29;20053;-80
2021/06/21 07:18:16;;;;;;;9.75;2.55;;;;;;;17.31;63.48;100729.84;4811919;29;20049;-80
2021/06/21 07:20:42;;;;;;;12.02;2.53;;;;;;;17.52;63.54;100773.75;4812430;29;20465;-81
2021/06/21 07:23:07;;;;;;;13.20;3.10;;;;;;;17.34;63.44;100767.44;4809099;29;20505;-79
2021/06/21 07:25:33;;;;;;;9.90;2.65;;;;;;;17.48;62.96;100783.44;4797315;29;20031;-80
2021/06/21 07:27:59;;;;;;;11.95;2.63;;;;;;;17.78;63.41;100784.00;4811181;29;20067;-79
2021/06/21 07:30:24;;;;;;;10.65;2.40;;;;;;;17.78;63.32;100789.44;4799476;29;20054;-80
2021/06/21 07:32:50;;;;;;;8.63;2.42;;;;;;;17.90;62.85;100805.69;4799067;29;20086;-80
2021/06/21 07:35:15;;;;;;;11.40;2.15;;;;;;;18.17;62.85;100783.22;4812226;29;20022;-80
2021/06/21 07:37:41;;;;;;;6.10;2.22;;;;;;;18.26;62.19;100773.56;4810879;29;20045;-80
2021/06/21 07:40:08;;;;;;;7.60;2.25;;;;;;;18.53;61.90;100790.00;4814263;29;20031;-79
2021/06/21 07:42:34;;;;;;;11.90;2.65;;;;;;;18.72;61.75;100794.09;4809179;29;20061;-79
2021/06/21 07:45:01;;;;;;;7.13;2.03;;;;;;;18.81;60.90;100790.91;4813717;29;20125;-80
2021/06/21 07:47:27;;;;;;;9.82;2.20;;;;;;;18.84;60.99;100796.69;4811116;29;20047;-79
2021/06/21 07:49:52;;;;;;;9.40;2.75;;;;;;;19.01;60.43;100796.63;4811216;29;20089;-79
2021/06/21 07:52:17;;;;;;;7.78;2.03;;;;;;;18.96;60.50;100793.81;4796728;29;20043;-79
2021/06/21 07:54:43;;;;;;;7.18;2.05;;;;;;;18.90;60.24;100789.38;4799136;29;20035;-80
2021/06/21 07:57:08;;;;;;;7.18;2.50;;;;;;;18.89;59.56;100785.03;4796129;29;20047;-80
2021/06/21 07:59:34;;;;;;;9.18;2.20;;;;;;;18.91;60.54;100797.31;4799309;29;20035;-80
2021/06/21 08:01:59;;;;;;;7.90;2.53;;;;;;;19.12;59.58;100797.56;4810711;29;20027;-81
2021/06/21 08:04:25;;;;;;;9.48;2.38;;;;;;;19.15;59.52;100794.31;4811828;29;20112;-79
2021/06/21 08:06:50;;;;;;;8.93;2.45;;;;;;;19.31;58.77;100807.03;4782443;29;20043;-80
2021/06/21 08:09:15;;;;;;;6.63;1.88;;;;;;;19.47;58.34;100808.03;4816091;29;20027;-79
2021/06/21 08:11:41;;;;;;;7.85;2.28;;;;;;;19.28;58.49;100807.56;4817517;29;20115;-79
2021/06/21 08:14:06;;;;;;;10.77;2.75;;;;;;;19.15;59.93;100813.41;4784248;29;20062;-79
2021/06/21 08:16:32;;;;;;;7.00;2.30;;;;;;;19.08;59.97;100824.53;4816354;29;20042;-80
2021/06/21 08:18:58;;;;;;;10.20;2.35;;;;;;;18.83;59.82;100822.28;4795883;29;20038;-80
2021/06/21 08:21:24;;;;;;;8.05;2.17;;;;;;;18.53;60.41;100811.78;4809160;29;20457;-80
2021/06/21 08:23:50;;;;;;;12.95;2.72;;;;;;;18.52;60.83;100821.06;4812890;29;20052;-79
2021/06/21 08:26:15;;;;;;;9.30;2.08;;;;;;;18.76;61.13;100822.47;4797978;29;20041;-80
2021/06/21 08:28:41;;;;;;;8.85;2.30;;;;;;;18.70;61.26;100823.47;4814212;29;20038;-79
2021/06/21 08:31:06;;;;;;;8.55;2.00;;;;;;;18.59;60.93;100827.13;4814437;29;20027;-79
2021/06/21 08:33:32;;;;;;;7.30;1.90;;;;;;;18.41;60.60;100825.53;4813070;29;20058;-80
2021/06/21 08:35:57;;;;;;;7.80;1.92;;;;;;;18.47;60.53;100842.75;4797133;29;20113;-79
2021/06/21 08:38:23;;;;;;;10.80;2.15;;;;;;;18.11;60.41;100827.78;4801343;29;20038;-80
2021/06/21 08:40:48;;;;;;;9.77;2.22;;;;;;;17.91;61.44;100834.53;4832009;29;20069;-80
2021/06/21 08:43:14;;;;;;;10.93;2.40;;;;;;;17.83;61.71;100835.78;4814194;29;20111;-80
2021/06/21 08:45:39;;;;;;;9.70;2.05;;;;;;;17.63;61.56;100834.59;4817681;29;20092;-80
2021/06/21 08:48:09;;;;;;;10.02;2.78;;;;;;;17.36;61.83;100816.97;4814717;29;20023;-80
2021/06/21 08:50:39;;;;;;;9.25;2.67;;;;;;;17.38;62.47;100835.75;4810969;29;20412;-79
2021/06/21 08:53:04;;;;;;;10.02;2.50;;;;;;;17.36;62.50;100836.03;4808964;29;20030;-80
2021/06/21 08:55:30;;;;;;;14.38;2.88;;;;;;;17.35;62.16;100834.38;4814972;29;20094;-80
2021/06/21 08:57:55;;;;;;;10.68;2.80;;;;;;;17.28;62.71;100833.66;4811925;29;20058;-80
2021/06/21 09:00:23;;;;;;;11.68;2.95;;;;;;;17.30;62.32;100834.25;4812780;29;20126;-80
2021/06/21 09:02:50;;;;;;;13.15;2.90;;;;;;;17.11;63.00;100808.31;4813463;29;20046;-80
2021/06/21 09:05:16;;;;;;;9.80;2.72;;;;;;;17.35;62.97;100828.09;4812626;29;20035;-80
2021/06/21 09:07:43;;;;;;;9.65;2.53;;;;;;;17.45;63.00;100822.00;4811606;29;20084;-80
2021/06/21 09:10:23;;;;;;;11.57;3.13;;;;;;;17.63;63.12;100824.53;4813992;29;20027;-80
2021/06/21 09:13:01;;;;;;;11.32;3.00;;;;;;;17.80;62.95;100805.53;4808480;29;20100;-79
2021/06/21 09:15:30;;;;;;;10.10;2.75;;;;;;;18.00;62.65;100802.31;4819152;29;20027;-80
2021/06/21 09:17:57;;;;;;;9.35;3.05;;;;;;;18.16;62.22;100801.47;4815979;29;20031;-80
2021/06/21 09:20:22;;;;;;;10.10;2.92;;;;;;;18.15;61.38;100788.09;4813452;29;20039;-79
2021/06/21 09:23:00;;;;;;;8.25;2.60;;;;;;;18.09;62.16;100781.75;4814773;29;20037;-79
2021/06/21 09:25:27;;;;;;;12.07;3.05;;;;;;;18.23;61.89;100758.53;4820793;29;20050;-82
2021/06/21 09:27:53;;;;;;;10.43;3.50;;;;;;;18.26;61.36;100755.31;4821484;29;20035;-80
2021/06/21 09:30:19;;;;;;;10.57;3.05;;;;;;;18.24;61.30;100743.00;4822951;29;20034;-80
2021/06/21 09:32:47;;;;;;;9.15;2.60;;;;;;;18.07;61.59;100722.09;4822867;29;20018;-81
2021/06/21 09:35:34;;;;;;;9.02;2.53;;;;;;;18.38;61.04;100744.31;4818177;29;20031;-81
2021/06/21 09:38:04;;;;;;;10.23;2.58;;;;;;;18.44;60.68;100747.91;4806714;29;20038;-78
2021/06/21 09:40:35;;;;;;;9.70;3.17;;;;;;;18.18;61.38;100742.13;4821254;29;20050;-79
2021/06/21 09:43:36;;;;;;;12.05;3.28;;;;;;;18.26;61.65;100740.88;4792934;29;20055;-78
2021/06/21 09:46:11;;;;;;;9.57;3.08;;;;;;;18.19;61.12;100735.59;4752977;30;20047;-79
2021/06/21 09:48:44;;;;;;;9.88;2.60;;;;;;;17.82;61.60;100717.09;4802324;29;20054;-79
2021/06/21 09:51:29;;;;;;;10.98;2.88;;;;;;;17.49;62.41;100717.09;4821605;29;20034;-79
2021/06/21 09:54:03;;;;;;;9.65;2.72;;;;;;;17.54;62.84;100714.44;4815465;29;20343;-80
2021/06/21 09:56:30;;;;;;;;;;;;;;;17.31;63.39;100712.69;4817401;29;20039;-80
2021/06/21 09:58:55;;;;;;;11.20;3.00;;;;;;;17.47;63.56;100720.06;4814116;29;19920;-80
2021/06/21 10:01:31;;;;;;;13.00;3.25;;;;;;;17.55;64.10;100719.66;4821456;29;20106;-79
2021/06/21 10:03:57;;;;;;;10.90;2.80;;;;;;;17.61;63.68;100728.69;4815275;29;20042;-80
2021/06/21 10:06:23;;;;;;;9.93;3.13;;;;;;;17.56;64.16;100712.31;4822871;29;20062;-81
2021/06/21 10:08:52;;;;;;;12.35;3.17;;;;;;;17.42;63.59;100684.63;4821269;29;20466;-79
2021/06/21 10:11:41;;;;;;;11.85;3.55;;;;;;;17.07;63.80;100646.78;4824095;29;20467;-79
2021/06/21 10:14:08;;;;;;;12.90;3.35;;;;;;;16.58;65.89;100647.22;4809077;29;20041;-79
2021/06/21 10:16:35;;;;;;;13.63;3.40;;;;;;;16.32;67.36;100675.75;4808021;29;20420;-78
2021/06/21 10:19:03;;;;;;;13.95;3.75;;;;;;;16.34;67.65;100727.94;4809049;29;20038;-80
2021/06/21 10:21:30;;;;;;;15.45;3.65;;;;;;;16.54;68.65;100734.88;4790251;29;20033;-80
2021/06/21 10:23:57;;;;;;;13.20;3.72;;;;;;;16.53;69.04;100725.09;4816979;29;20095;-79
2021/06/21 10:26:23;;;;;;;12.27;3.50;;;;;;;16.66;68.52;100705.78;4809133;29;20030;-78
2021/06/21 10:28:50;;;;;;;12.88;3.85;;;;;;;16.58;67.80;100677.09;4811641;29;20027;-78
2021/06/21 10:31:29;;;;;;;12.93;3.40;;;;;;;16.53;67.28;100708.78;4810362;29;20035;-78
2021/06/21 10:34:05;;;;;;;10.15;3.40;;;;;;;16.76;68.15;100733.19;4813948;29;20458;-79
2021/06/21 10:36:48;;;;;;;13.27;3.72;;;;;;;16.98;67.36;100732.50;4819575;29;20041;-79
2021/06/21 10:39:15;;;;;;;15.38;3.72;;;;;;;17.14;67.21;100735.25;4805672;29;20058;-79
2021/06/21 10:42:10;;;;;;;12.07;3.72;;;;;;;17.38;66.70;100735.13;4809970;29;20041;-79
2021/06/21 10:44:41;;;;;;;10.55;2.90;;;;;;;17.78;65.86;100743.19;4807467;29;20053;-79
2021/06/21 10:47:37;;;;;;;12.75;3.58;;;;;;;17.69;64.30;100705.72;4811529;29;20055;-78
2021/06/21 10:50:03;;;;;;;13.07;3.22;;;;;;;17.87;64.27;100724.50;4812714;29;20031;-79
2021/06/21 10:52:43;;;;;;;15.55;3.80;;;;;;;18.07;63.49;100716.63;4812178;29;20433;-79
2021/06/21 10:55:35;;;;;;;11.45;3.25;;;;;;;18.14;63.58;100716.47;4811612;29;20076;-79
2021/06/21 10:58:19;;;;;;;14.55;3.47;;;;;;;17.99;62.79;100730.69;4810364;29;20049;-78
2021/06/21 11:00:48;;;;;;;13.57;3.23;;;;;;;17.81;63.34;100734.53;4805779;29;20397;-79
2021/06/21 11:03:26;;;;;;;9.43;2.88;;;;;;;18.02;63.30;100760.16;4807620;29;20038;-78
2021/06/21 11:05:59;;;;;;;10.50;2.78;;;;;;;18.12;62.73;100745.03;4806065;29;20034;-79
2021/06/21 11:08:26;;;;;;;14.77;3.47;;;;;;;18.08;62.52;100763.78;4807981;29;20031;-81
2021/06/21 11:10:54;;;;;;;12.63;2.72;;;;;;;18.17;63.14;100781.31;4792317;29;20030;-81
2021/06/21 11:13:32;;;;;;;13.15;3.13;;;;;;;18.48;62.93;100773.59;4808433;29;20469;-81
2021/06/21 11:16:12;;;;;;;9.63;3.10;;;;;;;18.90;62.49;100783.94;4807880;29;20118;-81
2021/06/21 11:18:38;;;;;;;9.90;2.72;;;;;;;19.08;61.99;100785.53;4806351;29;20031;-82
2021/06/21 11:21:19;;;;;;;9.23;3.03;;;;;;;18.98;61.98;100787.03;4808410;29;20355;-81
2021/06/21 11:23:48;;;;;;;11.77;3.40;;;;;;;18.78;61.73;100756.81;4807579;29;20039;-79
2021/06/21 11:26:14;;;;;;;10.40;3.05;;;;;;;19.18;61.77;100780.16;4811424;29;20123;-81
2021/06/21 11:28:47;;;;;;;8.65;2.95;;;;;;;19.49;60.70;100778.56;4816091;29;20015;-81
2021/06/21 11:31:23;;;;;;;7.18;2.83;;;;;;;19.72;60.20;100780.16;4813837;29;20449;-82
2021/06/21 11:33:58;;;;;;;10.35;3.15;;;;;;;19.76;59.94;100775.00;4823119;29;20105;-81
2021/06/21 11:36:36;;;;;;;10.23;3.00;;;;;;;19.66;60.14;100779.28;4816312;29;20110;-79
2021/06/21 11:39:17;;;;;;;10.05;3.22;;;;;;;19.66;59.30;100779.28;4821073;29;20099;-82